Seminole, Texas
Current Conditions -  °F | °C
As of 12:35 AM on Friday 31 Oct 2014 (Local Time) from KGNC Reporting Station
Clear Clear  
Wind Chill: 57°   Ceiling: Unl
Heat Index: 57°   Visibility: 10mi
Dew Point: 38°   Wind: 9mph
Humidity: 49%   Direction: 60°ENE
Pressure: 30.32"   Gusts: NA
Location:  32.73°N, 102.64°W
Report Text: KGNC 310535Z AUTO 06008KT 10SM CLR 14/03 A3032 RMK AO2 T01370031
Loading
Personal Weather Stations






























Interactive Weather Map
Tropical Storm Tracking
New forecast layout! Learn more

10-Day Weather Forecast

Advertisements
Track Severe Weather on mobile